Stein, Netherlands
Current Conditions -  °F | °C
As of 4:25 AM on Saturday 29 Nov 2014 (Local Time) from EHBK Reporting Station
Clear Clear  
Wind Chill: 29°   Ceiling: Unl
Heat Index: 37°   Visibility: 4mi
Dew Point: 36°   Wind: 14mph
Humidity: 93%   Direction: 80°E
Pressure: 29.85"   Gusts: NA
Location:  50.97°N, 5.77°E
Report Text: EHBK 290325Z AUTO 08012KT 6000 NCD 03/02 Q1011
Loading
Personal Weather Stations






























Interactive Weather Map New forecast layout! Learn more

10-Day Weather Forecast

Advertisements
Track Severe Weather on mobile